Flight Track Log - Related Links

Times and Time Zones

All times are in EDT time to prevent confusion due to time zone crossing. See the UAL5900 flight status page for this flight to view local times or setup timezone preferences in your user account.

Time Position Orientation Groundspeed Altitude Reporting Facility
EDT Latitude Longitude Course Direction KTS MPH feet Rate Location/Type
Sat 04:24:56 PM 42.7742 -84.6383 270° West 152 175 28,000  Level Chicago Center
Sat 04:25:58 PM 42.7800 -84.6997 277° West 202 232 5,800 -9,512 Descending Chicago Center
Sat 04:26:59 PM 42.7808 -84.7847 271° West 217 250 8,500 2,488 Climbing Chicago Center
Sat 04:27:00 PM 42.7667 -84.9124 270° West  Level FlightAware Approximate
Sat 04:28:00 PM 42.7667 -84.9947 270° West  Level FlightAware Approximate
Sat 04:28:01 PM 42.7811 -84.8764 270° West 236 272 10,900  Level Chicago Center
Sat 04:29:00 PM 42.7775 -85.0756 281° West  Level FlightAware Approximate
Sat 04:29:03 PM 42.7831 -84.9872 271° West 285 328 12,200  Level Chicago Center
Sat 04:30:00 PM 42.7834 -85.1504 270° West  Level FlightAware Approximate
Sat 04:30:05 PM 42.7842 -85.1250 271° West 303 349 14,500  Level Chicago Center
Sat 04:31:07 PM 42.7853 -85.2444 271° West 311 358 15,900 732 Climbing Chicago Center
Sat 04:32:08 PM 42.7867 -85.3717 271° West 329 379 16,000 49 Climbing Chicago Center
Sat 04:33:10 PM 42.7864 -85.5000 270° West 337 388 16,000  Level Chicago Center
Sat 04:34:12 PM 42.7642 -85.6247 256° West 339 390 16,000  Level Chicago Center
Sat 04:35:14 PM 42.7419 -85.7494 256° West 338 389 16,000  Level Chicago Center
Sat 04:36:16 PM 42.7206 -85.8703 256° West 330 380 16,000  Level Chicago Center
Sat 04:37:18 PM 42.6986 -85.9875 256° West 321 369 16,000  Level Chicago Center
Sat 04:38:20 PM 42.6725 -86.1292 256° West 320 368 16,000  Level Chicago Center
Sat 04:39:21 PM 42.6506 -86.2469 256° West 321 369 16,000  Level Chicago Center
Sat 04:40:23 PM 42.6281 -86.3633 255° West 317 365 16,000  Level Chicago Center
Sat 04:41:25 PM 42.6061 -86.4819 256° West 322 371 16,000 -145 Level Chicago Center
Sat 04:42:27 PM 42.5839 -86.6017 256° West 326 375 15,700 -1,016 Descending Chicago Center
Sat 04:43:29 PM 42.5622 -86.7167 256° West 320 368 13,900 -1,805 Descending Chicago Center
Sat 04:44:30 PM 42.5339 -86.8222 250° West 304 350 12,000 -1,756 Descending Chicago Center
Sat 04:45:32 PM 42.5061 -86.9283 250° West 255 293 10,300 -1,306 Descending Chicago Center
Sat 04:46:34 PM 42.4825 -87.0136 249° West 242 278 9,300 -629 Descending Chicago Center
Sat 04:47:36 PM 42.4597 -87.0925 249° West 229 264 9,000 -484 Descending Chicago Center
Sat 04:48:38 PM 42.4375 -87.1750 250° West 232 267 8,300 -780 Descending Chicago Center
Sat 04:49:39 PM 42.3881 -87.2344 222° Southwest 245 282 7,400 -927 Descending Chicago Center
Sat 04:50:41 PM 42.3336 -87.2825 213° Southwest 235 270 6,400 -677 Descending Chicago Center
Sat 04:51:43 PM 42.2797 -87.3592 226° Southwest 240 276 6,000 -341 Descending Chicago Center
Sat 04:52:44 PM 42.2378 -87.4275 230° Southwest 238 274 5,700 -488 Descending Chicago Center
Sat 04:53:46 PM 42.1958 -87.4928 229° Southwest 233 268 5,000 -339 Descending Chicago Center
Sat 04:54:48 PM 42.1533 -87.5586 229° Southwest 234 269 5,000  Level Chicago Center
Sat 04:55:21 PM 42.1167 -87.6000 220° Southwest 231 266 5,000 -136 Level Chicago TRACON
Sat 04:56:16 PM 42.1000 -87.6500 246° West 177 204 4,800 -550 Descending Chicago TRACON
Sat 04:57:10 PM 42.0667 -87.7000 228° Southwest 165 190 4,000 -842 Descending Chicago TRACON
Sat 04:58:10 PM 42.0333 -87.7500 228° Southwest 163 188 3,200 -900 Descending Chicago TRACON
Sat 04:59:10 PM 42.0167 -87.7833 236° Southwest 167 192 2,200 -750 Descending Chicago TRACON
Sat 05:00:10 PM 42.0000 -87.8333 246° West 115 132 1,700 -500 Descending Chicago TRACON

Login

Don't have an account? Register now (free) for customized features, flight alerts, and more!